createdAt,value
2023-01-08T14:15:46.103Z,101636.67
2023-01-08T14:18:13.711Z,101637.20
2023-01-08T14:20:41.729Z,101631.02
2023-01-08T14:23:13.844Z,101629.29
2023-01-08T14:25:41.545Z,101632.20
2023-01-08T14:28:14.662Z,101630.82
2023-01-08T14:30:50.926Z,101627.00
2023-01-08T14:33:32.165Z,101628.70
2023-01-08T14:36:02.304Z,101632.44
2023-01-08T14:38:29.268Z,101632.08
2023-01-08T14:41:06.361Z,101629.83
2023-01-08T14:43:34.742Z,101628.60
2023-01-08T14:46:03.900Z,101629.76
2023-01-08T14:49:23.316Z,101629.54
2023-01-08T14:55:37.555Z,101628.08
2023-01-08T14:58:04.463Z,101627.37
2023-01-08T15:00:31.607Z,101628.70
2023-01-08T15:03:06.173Z,101627.48
2023-01-08T15:05:48.786Z,101625.04
2023-01-08T15:08:24.388Z,101622.05
2023-01-08T15:11:01.925Z,101622.16
2023-01-08T15:13:34.257Z,101624.73
2023-01-08T15:16:25.695Z,101623.83
2023-01-08T15:19:13.167Z,101631.36
2023-01-08T15:21:40.327Z,101631.34
2023-01-08T15:24:07.754Z,101626.83
2023-01-08T15:26:34.770Z,101625.42
2023-01-08T15:29:05.947Z,101627.99
2023-01-08T15:31:39.502Z,101627.43
2023-01-08T15:34:09.566Z,101627.22
2023-01-08T15:36:36.490Z,101623.27
2023-01-08T15:39:04.055Z,101623.77
2023-01-08T15:41:53.857Z,101622.19
2023-01-08T15:44:20.875Z,101626.81
2023-01-08T15:46:47.903Z,101627.13
2023-01-08T15:49:14.733Z,101622.30
2023-01-08T15:51:45.517Z,101618.67
2023-01-08T15:54:12.811Z,101618.33
2023-01-08T15:56:39.648Z,101622.27
2023-01-08T15:59:06.766Z,101616.08
2023-01-08T16:01:33.913Z,101619.64
2023-01-08T16:04:00.857Z,101614.79
2023-01-08T16:06:27.700Z,101610.96
2023-01-08T16:08:58.040Z,101608.19
2023-01-08T16:11:24.846Z,101606.14
2023-01-08T16:13:51.813Z,101608.68
2023-01-08T16:16:19.465Z,101610.68
2023-01-08T16:18:46.506Z,101609.45
2023-01-08T16:21:13.783Z,101609.56
2023-01-08T16:23:40.886Z,101611.42
2023-01-08T16:26:11.988Z,101621.50
2023-01-08T16:28:39.083Z,101622.32
2023-01-08T16:31:06.808Z,101622.64
2023-01-08T16:33:33.818Z,101626.89
2023-01-08T16:36:05.970Z,101627.70
2023-01-08T16:38:33.622Z,101624.55
2023-01-08T16:41:00.828Z,101625.20
2023-01-08T16:43:28.995Z,101625.48
2023-01-08T16:45:56.193Z,101623.23
2023-01-08T16:48:23.305Z,101616.16
2023-01-08T16:50:50.294Z,101613.76
2023-01-08T16:53:21.952Z,101611.16
2023-01-08T16:55:48.809Z,101614.03
2023-01-08T16:58:15.605Z,101619.11
2023-01-08T17:00:42.571Z,101623.68
2023-01-08T17:03:09.364Z,101626.05
2023-01-08T17:05:36.411Z,101633.21
2023-01-08T17:08:03.367Z,101633.35
2023-01-08T17:10:30.193Z,101635.05
2023-01-08T17:12:57.368Z,101633.85
2023-01-08T17:15:24.411Z,101634.36
2023-01-08T17:17:51.346Z,101635.55
2023-01-08T17:20:20.253Z,101633.66
2023-01-08T17:22:47.179Z,101625.25
2023-01-08T17:25:14.232Z,101622.52
2023-01-08T17:27:42.391Z,101617.86
2023-01-08T17:30:11.185Z,101615.61
2023-01-08T17:32:38.665Z,101620.91
2023-01-08T17:35:06.382Z,101617.63
2023-01-08T17:37:33.693Z,101615.88
2023-01-08T17:40:03.689Z,101616.69
2023-01-08T17:42:30.577Z,101618.02
2023-01-08T17:45:00.489Z,101622.98
2023-01-08T17:47:28.195Z,101617.84
2023-01-08T17:49:56.577Z,101611.15
2023-01-08T17:52:24.787Z,101614.71
2023-01-08T17:54:52.989Z,101616.90
2023-01-08T17:57:20.569Z,101618.59
2023-01-08T17:59:47.745Z,101621.14
2023-01-08T18:02:16.166Z,101618.02
2023-01-08T18:04:45.627Z,101622.96
2023-01-08T18:07:12.988Z,101625.66
2023-01-08T18:09:40.602Z,101629.73
2023-01-08T18:12:08.789Z,101629.62
2023-01-08T18:14:38.015Z,101625.66
2023-01-08T18:17:05.991Z,101629.20
2023-01-08T18:19:33.116Z,101632.45
2023-01-08T18:22:01.229Z,101636.70
2023-01-08T18:24:28.248Z,101640.98
2023-01-08T18:26:55.389Z,101644.20
2023-01-08T18:29:22.667Z,101642.98
2023-01-08T18:31:49.880Z,101645.02
2023-01-08T18:34:17.085Z,101646.70
2023-01-08T18:36:44.174Z,101650.09
2023-01-08T18:39:14.646Z,101651.27
2023-01-08T18:42:00.214Z,101652.09
2023-01-08T18:44:27.496Z,101654.92
2023-01-08T18:46:55.001Z,101656.80
2023-01-08T18:49:23.920Z,101654.39
2023-01-08T18:51:50.915Z,101656.94
2023-01-08T18:54:18.125Z,101659.32
2023-01-08T18:56:46.765Z,101659.99
2023-01-08T18:59:14.027Z,101657.77
2023-01-08T19:01:42.130Z,101656.34
2023-01-08T19:04:14.399Z,101652.39
2023-01-08T19:06:41.416Z,101655.81
2023-01-08T19:09:08.597Z,101655.63
2023-01-08T19:11:36.174Z,101655.27
2023-01-08T19:14:03.677Z,101653.02
2023-01-08T19:16:31.128Z,101649.91
2023-01-08T19:18:59.118Z,101651.61
2023-01-08T19:21:26.461Z,101647.17
2023-01-08T19:23:53.852Z,101649.58
2023-01-08T19:26:21.207Z,101654.35
2023-01-08T19:28:48.285Z,101655.36
2023-01-08T19:31:17.723Z,101655.70
2023-01-08T19:33:48.717Z,101653.15
2023-01-08T19:36:16.756Z,101656.92
2023-01-08T19:38:45.079Z,101656.73
2023-01-08T19:41:31.662Z,101654.52
2023-01-08T19:43:58.762Z,101651.09
2023-01-08T19:52:58.386Z,101643.45
2023-01-08T19:55:25.644Z,101640.80
2023-01-08T19:57:54.623Z,101634.98
2023-01-08T20:00:24.612Z,101631.55
2023-01-08T20:02:51.779Z,101635.29
2023-01-08T20:05:19.012Z,101635.95
2023-01-08T20:07:46.478Z,101639.36
2023-01-08T20:10:13.803Z,101642.61
2023-01-08T20:12:40.743Z,101643.98
2023-01-08T20:15:09.258Z,101643.09
2023-01-08T20:17:36.397Z,101641.99
2023-01-08T20:20:03.950Z,101638.37
2023-01-08T20:22:31.722Z,101636.63
2023-01-08T20:24:59.199Z,101633.36
2023-01-08T20:27:26.429Z,101631.92
2023-01-08T20:29:53.423Z,101631.39
2023-01-08T20:32:23.223Z,101630.71
2023-01-08T20:34:50.664Z,101628.88
2023-01-08T20:37:17.745Z,101627.38
2023-01-08T20:39:45.059Z,101623.13
2023-01-08T20:42:14.597Z,101624.51
2023-01-08T20:44:44.430Z,101626.92
2023-01-08T20:47:11.620Z,101627.26
2023-01-08T20:49:38.667Z,101621.60
2023-01-08T20:52:07.026Z,101622.94
2023-01-08T20:54:34.124Z,101615.41
2023-01-08T20:57:01.589Z,101616.09
2023-01-08T20:59:28.825Z,101613.20
2023-01-08T21:01:57.434Z,101610.14
2023-01-08T21:04:24.748Z,101608.20
2023-01-08T21:06:52.000Z,101611.08
2023-01-08T21:09:19.050Z,101616.88
2023-01-08T21:11:46.199Z,101620.85
2023-01-08T21:14:14.161Z,101617.10
2023-01-08T21:16:42.751Z,101616.92
2023-01-08T21:19:10.601Z,101621.36
2023-01-08T21:21:39.974Z,101617.77
2023-01-08T21:24:09.151Z,101609.74
2023-01-08T21:26:37.698Z,101607.66
2023-01-08T21:29:06.577Z,101610.71
2023-01-08T21:31:34.331Z,101610.69
2023-01-08T21:34:01.966Z,101616.30
2023-01-08T21:36:29.574Z,101621.41
2023-01-08T21:38:57.648Z,101624.31
2023-01-08T21:41:44.257Z,101622.95
2023-01-08T21:44:33.246Z,101621.61
2023-01-08T21:47:00.701Z,101615.80
2023-01-08T21:49:27.688Z,101610.33
2023-01-08T21:52:13.622Z,101611.35
2023-01-08T21:54:41.262Z,101614.95
2023-01-08T21:57:08.633Z,101614.80
2023-01-08T21:59:35.860Z,101613.95
2023-01-08T22:02:03.059Z,101608.48
2023-01-08T22:04:30.172Z,101603.02
2023-01-08T22:06:58.581Z,101603.23
2023-01-08T22:09:28.035Z,101606.50
2023-01-08T22:11:56.292Z,101606.35
2023-01-08T22:14:23.702Z,101597.13
2023-01-08T22:16:50.647Z,101595.59
2023-01-08T22:19:36.097Z,101583.15
2023-01-08T22:22:03.183Z,101580.55
2023-01-08T22:24:30.764Z,101580.01
2023-01-08T22:33:26.823Z,101575.55
2023-01-08T22:35:56.349Z,101574.67
2023-01-08T22:38:24.068Z,101572.31
2023-01-08T22:40:51.022Z,101566.99
2023-01-08T22:43:18.120Z,101570.73
2023-01-08T22:45:54.517Z,101577.23
2023-01-08T22:48:21.528Z,101580.25
2023-01-08T22:50:48.824Z,101581.61
2023-01-08T22:53:16.292Z,101579.08
2023-01-08T22:55:43.955Z,101571.94
2023-01-08T22:58:11.540Z,101570.24
2023-01-08T23:00:38.864Z,101563.91
2023-01-08T23:03:06.317Z,101557.55
2023-01-08T23:05:35.376Z,101553.28
2023-01-08T23:08:02.353Z,101549.36
2023-01-08T23:10:33.626Z,101546.45
2023-01-08T23:13:02.516Z,101552.41
2023-01-08T23:15:30.548Z,101547.27
2023-01-08T23:17:57.653Z,101547.11
2023-01-08T23:20:25.393Z,101547.14
2023-01-08T23:22:52.530Z,101545.46
2023-01-08T23:25:20.160Z,101540.06
2023-01-08T23:27:47.271Z,101532.41
2023-01-08T23:30:14.608Z,101531.23
2023-01-08T23:32:41.979Z,101519.77
2023-01-08T23:35:10.209Z,101515.66
2023-01-08T23:37:37.273Z,101514.80
2023-01-08T23:40:09.494Z,101515.31
2023-01-08T23:42:36.989Z,101516.89
2023-01-08T23:45:05.884Z,101522.20
2023-01-08T23:47:33.211Z,101517.93
2023-01-08T23:50:00.284Z,101519.16
2023-01-08T23:52:27.349Z,101526.04
2023-01-08T23:54:57.882Z,101529.13
2023-01-08T23:57:25.922Z,101525.04
2023-01-08T23:59:55.335Z,101518.72
